sensor_id;sensor_type;location;lat;lon;timestamp;P1;durP1;ratioP1;P2;durP2;ratioP2
31262;SDS011;17892;52.080;9.006;2024-03-08T00:02:16;11.73;;;6.25;;
31262;SDS011;17892;52.080;9.006;2024-03-08T00:04:42;12.15;;;6.82;;
31262;SDS011;17892;52.080;9.006;2024-03-08T00:07:07;12.25;;;6.32;;
31262;SDS011;17892;52.080;9.006;2024-03-08T00:09:33;11.18;;;5.90;;
31262;SDS011;17892;52.080;9.006;2024-03-08T00:11:59;10.88;;;5.93;;
31262;SDS011;17892;52.080;9.006;2024-03-08T00:14:25;9.75;;;5.05;;
31262;SDS011;17892;52.080;9.006;2024-03-08T00:16:51;12.70;;;6.57;;
31262;SDS011;17892;52.080;9.006;2024-03-08T00:19:17;12.60;;;6.20;;
31262;SDS011;17892;52.080;9.006;2024-03-08T00:21:43;10.35;;;5.70;;
31262;SDS011;17892;52.080;9.006;2024-03-08T00:24:09;13.18;;;6.53;;
31262;SDS011;17892;52.080;9.006;2024-03-08T00:26:35;13.40;;;6.05;;
31262;SDS011;17892;52.080;9.006;2024-03-08T00:29:01;15.77;;;8.30;;
31262;SDS011;17892;52.080;9.006;2024-03-08T00:31:28;13.45;;;6.53;;
31262;SDS011;17892;52.080;9.006;2024-03-08T00:33:56;11.82;;;5.82;;
31262;SDS011;17892;52.080;9.006;2024-03-08T00:36:22;16.33;;;8.18;;
31262;SDS011;17892;52.080;9.006;2024-03-08T00:38:48;14.35;;;7.38;;
31262;SDS011;17892;52.080;9.006;2024-03-08T00:41:13;15.23;;;7.35;;
31262;SDS011;17892;52.080;9.006;2024-03-08T00:43:39;14.73;;;8.32;;
31262;SDS011;17892;52.080;9.006;2024-03-08T00:46:05;13.05;;;6.82;;
31262;SDS011;17892;52.080;9.006;2024-03-08T00:48:30;12.13;;;6.85;;
31262;SDS011;17892;52.080;9.006;2024-03-08T00:50:56;12.00;;;5.93;;
31262;SDS011;17892;52.080;9.006;2024-03-08T00:53:22;11.50;;;5.32;;
31262;SDS011;17892;52.080;9.006;2024-03-08T00:55:48;9.18;;;5.28;;
31262;SDS011;17892;52.080;9.006;2024-03-08T00:58:14;12.18;;;6.53;;
31262;SDS011;17892;52.080;9.006;2024-03-08T01:00:40;12.48;;;7.22;;
31262;SDS011;17892;52.080;9.006;2024-03-08T01:03:05;10.57;;;6.50;;
31262;SDS011;17892;52.080;9.006;2024-03-08T01:05:31;9.93;;;5.45;;
31262;SDS011;17892;52.080;9.006;2024-03-08T01:07:57;12.18;;;5.13;;
31262;SDS011;17892;52.080;9.006;2024-03-08T01:10:23;9.40;;;4.95;;
31262;SDS011;17892;52.080;9.006;2024-03-08T01:12:49;10.65;;;4.63;;
31262;SDS011;17892;52.080;9.006;2024-03-08T01:15:19;8.18;;;4.15;;
31262;SDS011;17892;52.080;9.006;2024-03-08T01:17:45;8.70;;;4.75;;
31262;SDS011;17892;52.080;9.006;2024-03-08T01:20:11;9.35;;;5.00;;
31262;SDS011;17892;52.080;9.006;2024-03-08T01:22:37;11.73;;;6.13;;
31262;SDS011;17892;52.080;9.006;2024-03-08T01:25:03;9.60;;;5.35;;
31262;SDS011;17892;52.080;9.006;2024-03-08T01:27:30;10.68;;;5.30;;
31262;SDS011;17892;52.080;9.006;2024-03-08T01:29:56;11.43;;;5.53;;
31262;SDS011;17892;52.080;9.006;2024-03-08T01:32:24;8.55;;;4.35;;
31262;SDS011;17892;52.080;9.006;2024-03-08T01:34:50;9.80;;;5.10;;
31262;SDS011;17892;52.080;9.006;2024-03-08T01:37:15;9.23;;;4.95;;
31262;SDS011;17892;52.080;9.006;2024-03-08T01:39:41;8.40;;;4.68;;
31262;SDS011;17892;52.080;9.006;2024-03-08T01:42:07;20.27;;;9.75;;
31262;SDS011;17892;52.080;9.006;2024-03-08T01:44:32;13.88;;;7.00;;
31262;SDS011;17892;52.080;9.006;2024-03-08T01:46:58;12.90;;;6.65;;
31262;SDS011;17892;52.080;9.006;2024-03-08T01:49:24;11.65;;;6.18;;
31262;SDS011;17892;52.080;9.006;2024-03-08T01:51:51;14.82;;;7.18;;
31262;SDS011;17892;52.080;9.006;2024-03-08T01:54:18;14.07;;;7.90;;
31262;SDS011;17892;52.080;9.006;2024-03-08T01:56:45;14.80;;;8.05;;
31262;SDS011;17892;52.080;9.006;2024-03-08T01:59:11;13.73;;;6.60;;
31262;SDS011;17892;52.080;9.006;2024-03-08T02:01:39;13.27;;;6.22;;
31262;SDS011;17892;52.080;9.006;2024-03-08T02:04:05;15.13;;;6.65;;
31262;SDS011;17892;52.080;9.006;2024-03-08T02:06:32;13.13;;;6.90;;
31262;SDS011;17892;52.080;9.006;2024-03-08T02:08:57;11.57;;;6.07;;
31262;SDS011;17892;52.080;9.006;2024-03-08T02:11:23;12.15;;;6.55;;
31262;SDS011;17892;52.080;9.006;2024-03-08T02:13:49;13.38;;;6.38;;
31262;SDS011;17892;52.080;9.006;2024-03-08T02:16:20;13.23;;;7.05;;
31262;SDS011;17892;52.080;9.006;2024-03-08T02:18:47;12.82;;;7.18;;
31262;SDS011;17892;52.080;9.006;2024-03-08T02:21:13;13.55;;;7.28;;
31262;SDS011;17892;52.080;9.006;2024-03-08T02:26:08;15.32;;;7.65;;
31262;SDS011;17892;52.080;9.006;2024-03-08T02:28:34;13.70;;;7.43;;
31262;SDS011;17892;52.080;9.006;2024-03-08T02:31:00;11.75;;;6.43;;
31262;SDS011;17892;52.080;9.006;2024-03-08T02:33:27;14.88;;;7.43;;
31262;SDS011;17892;52.080;9.006;2024-03-08T02:35:53;12.82;;;7.10;;
31262;SDS011;17892;52.080;9.006;2024-03-08T02:38:21;15.52;;;7.28;;
31262;SDS011;17892;52.080;9.006;2024-03-08T02:40:50;13.65;;;7.13;;
31262;SDS011;17892;52.080;9.006;2024-03-08T02:43:18;12.27;;;6.97;;
31262;SDS011;17892;52.080;9.006;2024-03-08T02:45:45;13.55;;;6.78;;
31262;SDS011;17892;52.080;9.006;2024-03-08T02:48:11;16.52;;;7.90;;
31262;SDS011;17892;52.080;9.006;2024-03-08T02:50:38;20.10;;;10.38;;
31262;SDS011;17892;52.080;9.006;2024-03-08T02:53:10;18.83;;;9.65;;
31262;SDS011;17892;52.080;9.006;2024-03-08T02:55:37;18.05;;;9.00;;
31262;SDS011;17892;52.080;9.006;2024-03-08T02:58:04;19.20;;;10.13;;
31262;SDS011;17892;52.080;9.006;2024-03-08T03:00:30;16.25;;;8.25;;
31262;SDS011;17892;52.080;9.006;2024-03-08T03:02:56;15.55;;;7.93;;
31262;SDS011;17892;52.080;9.006;2024-03-08T03:05:22;14.88;;;7.50;;
31262;SDS011;17892;52.080;9.006;2024-03-08T03:07:49;15.20;;;7.07;;
31262;SDS011;17892;52.080;9.006;2024-03-08T03:10:18;15.40;;;7.97;;
31262;SDS011;17892;52.080;9.006;2024-03-08T03:12:46;17.67;;;9.27;;
31262;SDS011;17892;52.080;9.006;2024-03-08T03:15:13;18.33;;;9.13;;
31262;SDS011;17892;52.080;9.006;2024-03-08T03:17:39;18.48;;;9.55;;
31262;SDS011;17892;52.080;9.006;2024-03-08T03:20:06;15.32;;;8.40;;
31262;SDS011;17892;52.080;9.006;2024-03-08T03:22:38;15.07;;;8.20;;
31262;SDS011;17892;52.080;9.006;2024-03-08T03:25:06;17.75;;;8.48;;
31262;SDS011;17892;52.080;9.006;2024-03-08T03:27:34;21.50;;;10.05;;
31262;SDS011;17892;52.080;9.006;2024-03-08T03:30:00;29.08;;;12.73;;
31262;SDS011;17892;52.080;9.006;2024-03-08T03:32:45;27.10;;;12.60;;
31262;SDS011;17892;52.080;9.006;2024-03-08T03:35:15;31.85;;;14.63;;
31262;SDS011;17892;52.080;9.006;2024-03-08T03:37:45;32.38;;;13.98;;
31262;SDS011;17892;52.080;9.006;2024-03-08T03:40:16;31.23;;;15.82;;
31262;SDS011;17892;52.080;9.006;2024-03-08T03:42:44;23.60;;;11.38;;
31262;SDS011;17892;52.080;9.006;2024-03-08T03:45:10;28.13;;;13.70;;
31262;SDS011;17892;52.080;9.006;2024-03-08T03:47:36;30.65;;;13.70;;
31262;SDS011;17892;52.080;9.006;2024-03-08T03:50:03;25.40;;;12.75;;
31262;SDS011;17892;52.080;9.006;2024-03-08T03:52:30;26.20;;;12.15;;
31262;SDS011;17892;52.080;9.006;2024-03-08T03:54:56;20.77;;;11.30;;
31262;SDS011;17892;52.080;9.006;2024-03-08T03:57:22;22.15;;;10.70;;
31262;SDS011;17892;52.080;9.006;2024-03-08T03:59:48;22.00;;;10.88;;
31262;SDS011;17892;52.080;9.006;2024-03-08T04:02:15;23.73;;;11.88;;
31262;SDS011;17892;52.080;9.006;2024-03-08T04:04:42;20.55;;;10.52;;
31262;SDS011;17892;52.080;9.006;2024-03-08T04:07:09;17.48;;;9.07;;
31262;SDS011;17892;52.080;9.006;2024-03-08T04:09:35;14.82;;;7.93;;
31262;SDS011;17892;52.080;9.006;2024-03-08T04:12:00;16.40;;;7.90;;
31262;SDS011;17892;52.080;9.006;2024-03-08T04:14:26;16.50;;;8.55;;
31262;SDS011;17892;52.080;9.006;2024-03-08T04:16:52;14.20;;;7.60;;
31262;SDS011;17892;52.080;9.006;2024-03-08T04:19:17;16.42;;;8.05;;
31262;SDS011;17892;52.080;9.006;2024-03-08T04:21:44;14.88;;;8.10;;
31262;SDS011;17892;52.080;9.006;2024-03-08T04:24:09;13.63;;;6.75;;
31262;SDS011;17892;52.080;9.006;2024-03-08T04:26:35;13.55;;;7.20;;
31262;SDS011;17892;52.080;9.006;2024-03-08T04:29:01;14.15;;;7.35;;
31262;SDS011;17892;52.080;9.006;2024-03-08T04:31:26;17.65;;;7.93;;
31262;SDS011;17892;52.080;9.006;2024-03-08T04:33:52;14.30;;;7.95;;
31262;SDS011;17892;52.080;9.006;2024-03-08T04:36:18;14.07;;;7.82;;
31262;SDS011;17892;52.080;9.006;2024-03-08T04:38:44;16.42;;;8.68;;
31262;SDS011;17892;52.080;9.006;2024-03-08T04:41:10;14.95;;;7.13;;
31262;SDS011;17892;52.080;9.006;2024-03-08T04:43:36;14.50;;;7.75;;
31262;SDS011;17892;52.080;9.006;2024-03-08T04:46:02;15.80;;;7.57;;
31262;SDS011;17892;52.080;9.006;2024-03-08T04:48:28;17.17;;;8.20;;
31262;SDS011;17892;52.080;9.006;2024-03-08T04:50:54;16.27;;;8.77;;
31262;SDS011;17892;52.080;9.006;2024-03-08T04:53:20;16.40;;;8.25;;
31262;SDS011;17892;52.080;9.006;2024-03-08T04:55:46;16.15;;;7.32;;
31262;SDS011;17892;52.080;9.006;2024-03-08T04:58:12;15.85;;;8.75;;
31262;SDS011;17892;52.080;9.006;2024-03-08T05:00:38;19.85;;;9.77;;
31262;SDS011;17892;52.080;9.006;2024-03-08T05:03:03;25.73;;;12.82;;
31262;SDS011;17892;52.080;9.006;2024-03-08T05:05:29;22.83;;;11.38;;
31262;SDS011;17892;52.080;9.006;2024-03-08T05:07:55;29.73;;;12.98;;
31262;SDS011;17892;52.080;9.006;2024-03-08T05:10:21;25.08;;;12.23;;
31262;SDS011;17892;52.080;9.006;2024-03-08T05:12:47;26.38;;;14.45;;
31262;SDS011;17892;52.080;9.006;2024-03-08T05:15:13;30.60;;;13.70;;
31262;SDS011;17892;52.080;9.006;2024-03-08T05:17:39;25.67;;;12.32;;
31262;SDS011;17892;52.080;9.006;2024-03-08T05:20:05;28.48;;;13.15;;
31262;SDS011;17892;52.080;9.006;2024-03-08T05:22:37;26.63;;;14.07;;
31262;SDS011;17892;52.080;9.006;2024-03-08T05:25:03;31.27;;;15.05;;
31262;SDS011;17892;52.080;9.006;2024-03-08T05:27:29;32.13;;;15.55;;
31262;SDS011;17892;52.080;9.006;2024-03-08T05:29:55;27.60;;;14.60;;
31262;SDS011;17892;52.080;9.006;2024-03-08T05:32:20;29.23;;;14.10;;
31262;SDS011;17892;52.080;9.006;2024-03-08T05:34:46;28.80;;;13.65;;
31262;SDS011;17892;52.080;9.006;2024-03-08T05:37:11;28.15;;;13.45;;
31262;SDS011;17892;52.080;9.006;2024-03-08T05:39:37;26.63;;;13.10;;
31262;SDS011;17892;52.080;9.006;2024-03-08T05:42:03;24.90;;;12.82;;
31262;SDS011;17892;52.080;9.006;2024-03-08T05:44:29;26.25;;;13.93;;
31262;SDS011;17892;52.080;9.006;2024-03-08T05:46:55;28.05;;;13.77;;
31262;SDS011;17892;52.080;9.006;2024-03-08T05:49:21;27.50;;;11.77;;
31262;SDS011;17892;52.080;9.006;2024-03-08T05:51:47;27.10;;;12.70;;
31262;SDS011;17892;52.080;9.006;2024-03-08T05:54:13;28.83;;;13.52;;
31262;SDS011;17892;52.080;9.006;2024-03-08T05:56:39;26.67;;;13.32;;
31262;SDS011;17892;52.080;9.006;2024-03-08T05:59:09;24.15;;;12.65;;
31262;SDS011;17892;52.080;9.006;2024-03-08T06:01:35;25.10;;;12.13;;
31262;SDS011;17892;52.080;9.006;2024-03-08T06:04:02;30.25;;;13.57;;
31262;SDS011;17892;52.080;9.006;2024-03-08T06:06:29;26.13;;;12.80;;
31262;SDS011;17892;52.080;9.006;2024-03-08T06:08:54;27.60;;;13.25;;
31262;SDS011;17892;52.080;9.006;2024-03-08T06:11:24;24.88;;;12.30;;
31262;SDS011;17892;52.080;9.006;2024-03-08T06:13:55;28.23;;;12.63;;
31262;SDS011;17892;52.080;9.006;2024-03-08T06:16:24;29.98;;;13.93;;
31262;SDS011;17892;52.080;9.006;2024-03-08T06:18:54;26.20;;;12.52;;
31262;SDS011;17892;52.080;9.006;2024-03-08T06:21:23;25.45;;;12.18;;
31262;SDS011;17892;52.080;9.006;2024-03-08T06:23:51;24.90;;;12.63;;
31262;SDS011;17892;52.080;9.006;2024-03-08T06:26:19;31.48;;;14.30;;
31262;SDS011;17892;52.080;9.006;2024-03-08T06:28:46;27.33;;;13.73;;
31262;SDS011;17892;52.080;9.006;2024-03-08T06:31:13;26.05;;;13.18;;
31262;SDS011;17892;52.080;9.006;2024-03-08T06:33:39;24.75;;;11.80;;
31262;SDS011;17892;52.080;9.006;2024-03-08T06:36:05;24.42;;;11.75;;
31262;SDS011;17892;52.080;9.006;2024-03-08T06:38:31;20.73;;;10.15;;
31262;SDS011;17892;52.080;9.006;2024-03-08T06:40:56;20.58;;;9.70;;
31262;SDS011;17892;52.080;9.006;2024-03-08T06:43:22;22.50;;;11.20;;
31262;SDS011;17892;52.080;9.006;2024-03-08T06:45:50;17.95;;;8.70;;
31262;SDS011;17892;52.080;9.006;2024-03-08T06:48:16;16.05;;;8.27;;
31262;SDS011;17892;52.080;9.006;2024-03-08T06:50:43;21.60;;;11.32;;
31262;SDS011;17892;52.080;9.006;2024-03-08T06:53:10;23.23;;;10.52;;
31262;SDS011;17892;52.080;9.006;2024-03-08T06:55:36;21.45;;;10.95;;
31262;SDS011;17892;52.080;9.006;2024-03-08T06:58:02;24.80;;;12.55;;
31262;SDS011;17892;52.080;9.006;2024-03-08T07:00:27;20.00;;;10.68;;
31262;SDS011;17892;52.080;9.006;2024-03-08T07:02:55;22.17;;;11.57;;
31262;SDS011;17892;52.080;9.006;2024-03-08T07:05:25;22.45;;;12.55;;
31262;SDS011;17892;52.080;9.006;2024-03-08T07:07:52;22.58;;;11.32;;
31262;SDS011;17892;52.080;9.006;2024-03-08T07:10:19;25.38;;;12.80;;
31262;SDS011;17892;52.080;9.006;2024-03-08T07:12:48;23.27;;;12.75;;
31262;SDS011;17892;52.080;9.006;2024-03-08T07:15:14;23.80;;;11.90;;
31262;SDS011;17892;52.080;9.006;2024-03-08T07:17:41;22.35;;;11.20;;
31262;SDS011;17892;52.080;9.006;2024-03-08T07:20:09;20.73;;;11.68;;
31262;SDS011;17892;52.080;9.006;2024-03-08T07:22:37;21.67;;;11.70;;
31262;SDS011;17892;52.080;9.006;2024-03-08T07:25:04;22.60;;;12.25;;
31262;SDS011;17892;52.080;9.006;2024-03-08T07:27:53;21.17;;;11.90;;
31262;SDS011;17892;52.080;9.006;2024-03-08T07:30:24;23.40;;;12.07;;
31262;SDS011;17892;52.080;9.006;2024-03-08T07:33:09;26.52;;;12.98;;
31262;SDS011;17892;52.080;9.006;2024-03-08T07:35:38;23.65;;;12.90;;
31262;SDS011;17892;52.080;9.006;2024-03-08T07:38:05;22.90;;;13.10;;
31262;SDS011;17892;52.080;9.006;2024-03-08T07:40:35;23.80;;;13.05;;
31262;SDS011;17892;52.080;9.006;2024-03-08T07:43:09;21.92;;;12.32;;
31262;SDS011;17892;52.080;9.006;2024-03-08T07:45:35;20.00;;;11.25;;
31262;SDS011;17892;52.080;9.006;2024-03-08T07:48:04;24.05;;;12.88;;
31262;SDS011;17892;52.080;9.006;2024-03-08T07:50:37;23.77;;;12.70;;
31262;SDS011;17892;52.080;9.006;2024-03-08T07:53:04;22.40;;;12.45;;
31262;SDS011;17892;52.080;9.006;2024-03-08T07:55:34;21.52;;;12.30;;
31262;SDS011;17892;52.080;9.006;2024-03-08T07:58:00;21.67;;;12.00;;
31262;SDS011;17892;52.080;9.006;2024-03-08T08:00:29;23.23;;;12.05;;
31262;SDS011;17892;52.080;9.006;2024-03-08T08:02:56;24.00;;;12.15;;
31262;SDS011;17892;52.080;9.006;2024-03-08T08:05:22;23.38;;;12.68;;
31262;SDS011;17892;52.080;9.006;2024-03-08T08:07:48;24.52;;;13.23;;
31262;SDS011;17892;52.080;9.006;2024-03-08T08:10:14;22.80;;;12.60;;
31262;SDS011;17892;52.080;9.006;2024-03-08T08:12:46;23.13;;;12.77;;
31262;SDS011;17892;52.080;9.006;2024-03-08T08:15:15;20.60;;;11.80;;
31262;SDS011;17892;52.080;9.006;2024-03-08T08:17:44;23.38;;;13.63;;
31262;SDS011;17892;52.080;9.006;2024-03-08T08:20:10;22.52;;;12.90;;
31262;SDS011;17892;52.080;9.006;2024-03-08T08:22:38;24.45;;;13.23;;
31262;SDS011;17892;52.080;9.006;2024-03-08T08:25:10;22.00;;;13.27;;
31262;SDS011;17892;52.080;9.006;2024-03-08T08:27:38;22.35;;;13.35;;
31262;SDS011;17892;52.080;9.006;2024-03-08T08:30:10;23.15;;;13.60;;
31262;SDS011;17892;52.080;9.006;2024-03-08T08:32:37;21.13;;;11.98;;
31262;SDS011;17892;52.080;9.006;2024-03-08T08:35:04;23.02;;;12.52;;
31262;SDS011;17892;52.080;9.006;2024-03-08T08:37:38;22.52;;;13.10;;
31262;SDS011;17892;52.080;9.006;2024-03-08T08:40:04;22.02;;;12.43;;
31262;SDS011;17892;52.080;9.006;2024-03-08T08:42:35;27.33;;;14.50;;
31262;SDS011;17892;52.080;9.006;2024-03-08T08:45:04;21.80;;;12.23;;
31262;SDS011;17892;52.080;9.006;2024-03-08T08:47:33;21.00;;;12.25;;
31262;SDS011;17892;52.080;9.006;2024-03-08T08:50:00;17.10;;;11.25;;
31262;SDS011;17892;52.080;9.006;2024-03-08T08:52:26;19.60;;;11.15;;
31262;SDS011;17892;52.080;9.006;2024-03-08T08:54:53;18.67;;;11.10;;
31262;SDS011;17892;52.080;9.006;2024-03-08T08:57:19;21.58;;;12.68;;
31262;SDS011;17892;52.080;9.006;2024-03-08T08:59:45;19.50;;;11.98;;
31262;SDS011;17892;52.080;9.006;2024-03-08T09:02:11;24.90;;;13.73;;
31262;SDS011;17892;52.080;9.006;2024-03-08T09:04:38;19.65;;;13.00;;
31262;SDS011;17892;52.080;9.006;2024-03-08T09:07:03;19.70;;;12.10;;
31262;SDS011;17892;52.080;9.006;2024-03-08T09:09:31;21.02;;;12.98;;
31262;SDS011;17892;52.080;9.006;2024-03-08T09:11:57;19.08;;;12.57;;
31262;SDS011;17892;52.080;9.006;2024-03-08T09:14:23;21.13;;;12.48;;
31262;SDS011;17892;52.080;9.006;2024-03-08T09:16:51;20.98;;;13.43;;
31262;SDS011;17892;52.080;9.006;2024-03-08T09:19:16;21.63;;;13.63;;
31262;SDS011;17892;52.080;9.006;2024-03-08T09:21:44;19.02;;;12.00;;
31262;SDS011;17892;52.080;9.006;2024-03-08T09:24:10;21.38;;;12.80;;
31262;SDS011;17892;52.080;9.006;2024-03-08T09:26:35;24.58;;;14.52;;
31262;SDS011;17892;52.080;9.006;2024-03-08T09:29:02;24.13;;;14.38;;
31262;SDS011;17892;52.080;9.006;2024-03-08T09:31:28;22.25;;;13.50;;
31262;SDS011;17892;52.080;9.006;2024-03-08T09:33:54;22.20;;;13.27;;
31262;SDS011;17892;52.080;9.006;2024-03-08T09:36:19;22.15;;;13.13;;
31262;SDS011;17892;52.080;9.006;2024-03-08T09:38:45;21.90;;;13.70;;
31262;SDS011;17892;52.080;9.006;2024-03-08T09:41:12;19.02;;;12.52;;
31262;SDS011;17892;52.080;9.006;2024-03-08T09:43:38;22.90;;;14.07;;
31262;SDS011;17892;52.080;9.006;2024-03-08T09:46:04;22.30;;;13.43;;
31262;SDS011;17892;52.080;9.006;2024-03-08T09:50:59;22.35;;;13.45;;
31262;SDS011;17892;52.080;9.006;2024-03-08T09:53:26;20.27;;;12.82;;
31262;SDS011;17892;52.080;9.006;2024-03-08T09:55:51;20.50;;;12.25;;
31262;SDS011;17892;52.080;9.006;2024-03-08T09:58:17;22.35;;;14.00;;
31262;SDS011;17892;52.080;9.006;2024-03-08T10:00:58;18.67;;;12.27;;
31262;SDS011;17892;52.080;9.006;2024-03-08T10:03:27;22.05;;;13.48;;
31262;SDS011;17892;52.080;9.006;2024-03-08T10:05:54;20.98;;;13.27;;
31262;SDS011;17892;52.080;9.006;2024-03-08T10:08:25;19.77;;;12.60;;
31262;SDS011;17892;52.080;9.006;2024-03-08T10:13:23;19.27;;;11.73;;
31262;SDS011;17892;52.080;9.006;2024-03-08T10:15:50;19.88;;;12.10;;
31262;SDS011;17892;52.080;9.006;2024-03-08T10:18:16;18.95;;;12.23;;
31262;SDS011;17892;52.080;9.006;2024-03-08T10:20:42;21.95;;;12.98;;
31262;SDS011;17892;52.080;9.006;2024-03-08T10:23:08;19.75;;;12.23;;
31262;SDS011;17892;52.080;9.006;2024-03-08T10:25:35;19.52;;;11.98;;
31262;SDS011;17892;52.080;9.006;2024-03-08T10:28:04;18.92;;;12.18;;
31262;SDS011;17892;52.080;9.006;2024-03-08T10:30:31;21.33;;;13.40;;
31262;SDS011;17892;52.080;9.006;2024-03-08T10:32:57;17.75;;;11.60;;
31262;SDS011;17892;52.080;9.006;2024-03-08T10:35:23;19.05;;;11.50;;
31262;SDS011;17892;52.080;9.006;2024-03-08T10:37:51;16.85;;;11.18;;
31262;SDS011;17892;52.080;9.006;2024-03-08T10:40:28;20.95;;;13.23;;
31262;SDS011;17892;52.080;9.006;2024-03-08T10:48:16;19.33;;;12.45;;
31262;SDS011;17892;52.080;9.006;2024-03-08T10:50:56;19.75;;;12.70;;
31262;SDS011;17892;52.080;9.006;2024-03-08T10:53:23;21.15;;;13.38;;
31262;SDS011;17892;52.080;9.006;2024-03-08T10:55:54;16.88;;;10.75;;
31262;SDS011;17892;52.080;9.006;2024-03-08T10:58:22;17.70;;;11.57;;
31262;SDS011;17892;52.080;9.006;2024-03-08T11:00:52;17.33;;;12.25;;
31262;SDS011;17892;52.080;9.006;2024-03-08T11:06:17;19.13;;;12.23;;
31262;SDS011;17892;52.080;9.006;2024-03-08T11:08:49;18.52;;;12.50;;
31262;SDS011;17892;52.080;9.006;2024-03-08T11:11:25;18.48;;;12.32;;
31262;SDS011;17892;52.080;9.006;2024-03-08T11:13:55;16.95;;;11.73;;
31262;SDS011;17892;52.080;9.006;2024-03-08T11:18:54;17.75;;;12.20;;
31262;SDS011;17892;52.080;9.006;2024-03-08T11:21:31;18.27;;;12.57;;
31262;SDS011;17892;52.080;9.006;2024-03-08T11:24:07;18.33;;;12.60;;
31262;SDS011;17892;52.080;9.006;2024-03-08T11:26:37;19.10;;;12.23;;
31262;SDS011;17892;52.080;9.006;2024-03-08T11:34:47;20.13;;;12.88;;
31262;SDS011;17892;52.080;9.006;2024-03-08T11:37:17;17.92;;;12.07;;
31262;SDS011;17892;52.080;9.006;2024-03-08T11:39:52;17.67;;;11.32;;
31262;SDS011;17892;52.080;9.006;2024-03-08T11:42:24;18.95;;;11.82;;
31262;SDS011;17892;52.080;9.006;2024-03-08T11:44:53;18.15;;;12.27;;
31262;SDS011;17892;52.080;9.006;2024-03-08T11:47:19;17.95;;;11.80;;
31262;SDS011;17892;52.080;9.006;2024-03-08T11:49:45;18.63;;;11.73;;
31262;SDS011;17892;52.080;9.006;2024-03-08T11:52:16;16.85;;;11.90;;
31262;SDS011;17892;52.080;9.006;2024-03-08T11:54:47;18.88;;;12.93;;
31262;SDS011;17892;52.080;9.006;2024-03-08T11:57:19;16.60;;;10.98;;
31262;SDS011;17892;52.080;9.006;2024-03-08T11:59:53;16.50;;;11.25;;
31262;SDS011;17892;52.080;9.006;2024-03-08T12:02:21;17.20;;;10.77;;
31262;SDS011;17892;52.080;9.006;2024-03-08T12:04:50;19.70;;;12.52;;
31262;SDS011;17892;52.080;9.006;2024-03-08T12:07:22;17.48;;;11.60;;
31262;SDS011;17892;52.080;9.006;2024-03-08T12:12:50;18.55;;;12.23;;
31262;SDS011;17892;52.080;9.006;2024-03-08T12:15:18;19.23;;;12.52;;
31262;SDS011;17892;52.080;9.006;2024-03-08T12:17:47;18.48;;;11.63;;
31262;SDS011;17892;52.080;9.006;2024-03-08T12:20:16;15.63;;;10.82;;
31262;SDS011;17892;52.080;9.006;2024-03-08T12:22:54;16.25;;;10.88;;
31262;SDS011;17892;52.080;9.006;2024-03-08T12:25:33;19.17;;;12.07;;
31262;SDS011;17892;52.080;9.006;2024-03-08T12:28:07;18.20;;;12.90;;
31262;SDS011;17892;52.080;9.006;2024-03-08T12:30:50;19.30;;;13.32;;
31262;SDS011;17892;52.080;9.006;2024-03-08T12:33:22;18.90;;;12.30;;
31262;SDS011;17892;52.080;9.006;2024-03-08T12:35:54;23.17;;;14.27;;
31262;SDS011;17892;52.080;9.006;2024-03-08T12:38:24;20.65;;;12.70;;
31262;SDS011;17892;52.080;9.006;2024-03-08T12:40:57;18.63;;;11.60;;
31262;SDS011;17892;52.080;9.006;2024-03-08T12:43:24;19.90;;;12.95;;
31262;SDS011;17892;52.080;9.006;2024-03-08T12:45:50;19.65;;;12.13;;
31262;SDS011;17892;52.080;9.006;2024-03-08T12:48:17;17.50;;;11.40;;
31262;SDS011;17892;52.080;9.006;2024-03-08T12:50:45;17.52;;;11.90;;
31262;SDS011;17892;52.080;9.006;2024-03-08T12:53:12;18.13;;;12.32;;
31262;SDS011;17892;52.080;9.006;2024-03-08T12:55:39;17.83;;;12.18;;
31262;SDS011;17892;52.080;9.006;2024-03-08T12:58:05;18.83;;;12.63;;
31262;SDS011;17892;52.080;9.006;2024-03-08T13:00:32;19.52;;;13.25;;
31262;SDS011;17892;52.080;9.006;2024-03-08T13:03:01;17.52;;;11.15;;
31262;SDS011;17892;52.080;9.006;2024-03-08T13:05:28;19.95;;;13.82;;
31262;SDS011;17892;52.080;9.006;2024-03-08T13:07:55;19.42;;;13.43;;
31262;SDS011;17892;52.080;9.006;2024-03-08T13:10:21;17.40;;;11.95;;
31262;SDS011;17892;52.080;9.006;2024-03-08T13:12:47;19.35;;;11.77;;
31262;SDS011;17892;52.080;9.006;2024-03-08T13:15:13;17.98;;;12.63;;
31262;SDS011;17892;52.080;9.006;2024-03-08T13:17:45;20.65;;;12.65;;
31262;SDS011;17892;52.080;9.006;2024-03-08T13:20:13;21.27;;;14.98;;
31262;SDS011;17892;52.080;9.006;2024-03-08T13:22:44;17.48;;;11.85;;
31262;SDS011;17892;52.080;9.006;2024-03-08T13:25:11;20.00;;;13.05;;
31262;SDS011;17892;52.080;9.006;2024-03-08T13:27:39;17.85;;;12.10;;
31262;SDS011;17892;52.080;9.006;2024-03-08T13:30:08;21.52;;;13.07;;
31262;SDS011;17892;52.080;9.006;2024-03-08T13:32:38;19.73;;;12.98;;
31262;SDS011;17892;52.080;9.006;2024-03-08T13:35:11;17.98;;;12.07;;
31262;SDS011;17892;52.080;9.006;2024-03-08T13:37:43;17.95;;;11.18;;
31262;SDS011;17892;52.080;9.006;2024-03-08T13:40:09;20.42;;;13.48;;
31262;SDS011;17892;52.080;9.006;2024-03-08T13:42:42;17.35;;;12.20;;
31262;SDS011;17892;52.080;9.006;2024-03-08T13:45:10;18.65;;;11.98;;
31262;SDS011;17892;52.080;9.006;2024-03-08T13:47:36;19.13;;;12.32;;
31262;SDS011;17892;52.080;9.006;2024-03-08T13:50:04;21.77;;;13.80;;
31262;SDS011;17892;52.080;9.006;2024-03-08T13:52:32;20.67;;;12.68;;
31262;SDS011;17892;52.080;9.006;2024-03-08T13:54:59;19.92;;;13.00;;
31262;SDS011;17892;52.080;9.006;2024-03-08T13:57:26;20.48;;;12.50;;
31262;SDS011;17892;52.080;9.006;2024-03-08T13:59:52;19.13;;;12.68;;
31262;SDS011;17892;52.080;9.006;2024-03-08T14:02:18;20.63;;;13.60;;
31262;SDS011;17892;52.080;9.006;2024-03-08T14:04:44;23.42;;;15.65;;
31262;SDS011;17892;52.080;9.006;2024-03-08T14:07:10;20.75;;;12.98;;
31262;SDS011;17892;52.080;9.006;2024-03-08T14:09:36;22.17;;;13.63;;
31262;SDS011;17892;52.080;9.006;2024-03-08T14:12:04;21.17;;;13.57;;
31262;SDS011;17892;52.080;9.006;2024-03-08T14:14:33;20.15;;;13.40;;
31262;SDS011;17892;52.080;9.006;2024-03-08T14:17:00;19.42;;;13.15;;
31262;SDS011;17892;52.080;9.006;2024-03-08T14:19:29;23.65;;;14.73;;
31262;SDS011;17892;52.080;9.006;2024-03-08T14:21:59;22.30;;;13.18;;
31262;SDS011;17892;52.080;9.006;2024-03-08T14:24:25;19.67;;;11.77;;
31262;SDS011;17892;52.080;9.006;2024-03-08T14:26:51;21.17;;;13.55;;
31262;SDS011;17892;52.080;9.006;2024-03-08T14:29:16;21.70;;;13.15;;
31262;SDS011;17892;52.080;9.006;2024-03-08T14:31:45;21.60;;;13.82;;
31262;SDS011;17892;52.080;9.006;2024-03-08T14:34:11;17.95;;;11.48;;
31262;SDS011;17892;52.080;9.006;2024-03-08T14:36:39;21.83;;;13.48;;
31262;SDS011;17892;52.080;9.006;2024-03-08T14:39:04;22.35;;;14.02;;
31262;SDS011;17892;52.080;9.006;2024-03-08T14:41:32;23.05;;;14.02;;
31262;SDS011;17892;52.080;9.006;2024-03-08T14:43:59;22.67;;;13.85;;
31262;SDS011;17892;52.080;9.006;2024-03-08T14:46:25;21.00;;;12.68;;
31262;SDS011;17892;52.080;9.006;2024-03-08T14:48:52;21.02;;;13.43;;
31262;SDS011;17892;52.080;9.006;2024-03-08T14:51:21;22.90;;;14.48;;
31262;SDS011;17892;52.080;9.006;2024-03-08T14:53:51;22.17;;;13.25;;
31262;SDS011;17892;52.080;9.006;2024-03-08T14:56:19;23.83;;;14.77;;